Time;durP1;ratioP1;P1;durP2;ratioP2;P2;SDS_P1;SDS_P2;PMS_P1;PMS_P2;Temp;Humidity;BMP_temperature;BMP_pressure;BME280_temperature;BME280_humidity;BME280_pressure;Samples;Min_cycle;Max_cycle;Signal;HPM_P1;HPM_P2
2022/06/18 00:02:25;;;;;;;1.60;1.60;;;23.10;71.20;;;;;;5066536;28;43837;-70
2022/06/18 00:04:53;;;;;;;1.70;1.70;;;23.10;71.20;;;;;;5066544;28;43954;-70
2022/06/18 00:07:23;;;;;;;1.60;1.60;;;23.10;71.70;;;;;;5066644;28;43967;-70
2022/06/18 00:09:56;;;;;;;1.70;1.70;;;23.20;71.50;;;;;;5066597;28;44738;-68
2022/06/18 00:15:14;;;;;;;1.50;1.50;;;23.60;70.60;;;;;;5066442;28;44011;-70
2022/06/18 00:17:42;;;;;;;1.67;1.67;;;23.80;69.80;;;;;;5066944;28;43822;-69
2022/06/18 00:20:11;;;;;;;1.60;1.60;;;24.00;69.30;;;;;;5066382;28;43867;-70
2022/06/18 00:22:39;;;;;;;1.53;1.53;;;24.20;68.80;;;;;;5066317;28;44040;-68
2022/06/18 00:25:11;;;;;;;1.70;1.70;;;24.30;68.30;;;;;;5066282;28;43967;-69
2022/06/18 00:27:40;;;;;;;1.53;1.53;;;24.40;67.80;;;;;;5066762;28;44048;-70
2022/06/18 00:30:11;;;;;;;2.00;1.70;;;24.50;67.50;;;;;;5068412;28;43923;-70
2022/06/18 00:32:41;;;;;;;1.70;1.70;;;24.40;67.50;;;;;;5069673;28;44063;-69
2022/06/18 00:35:10;;;;;;;1.80;1.80;;;24.30;67.80;;;;;;5069840;28;43432;-69
2022/06/18 00:37:38;;;;;;;1.50;1.50;;;24.10;68.10;;;;;;5068582;28;44035;-69
2022/06/18 00:40:13;;;;;;;1.50;1.50;;;23.90;68.50;;;;;;5069708;28;45088;-70
2022/06/18 00:42:43;;;;;;;1.50;1.50;;;23.80;69.10;;;;;;5069712;28;43972;-69
2022/06/18 00:45:14;;;;;;;1.77;1.77;;;23.60;69.50;;;;;;5069772;28;43964;-69
2022/06/18 00:47:47;;;;;;;1.70;1.70;;;23.50;69.70;;;;;;5069969;28;43620;-70
2022/06/18 00:50:17;;;;;;;1.83;1.83;;;23.40;69.90;;;;;;5069676;28;43599;-69
2022/06/18 00:52:48;;;;;;;1.67;1.67;;;23.40;70.30;;;;;;5069546;28;43872;-69
2022/06/18 00:55:20;;;;;;;1.70;1.70;;;23.30;71.10;;;;;;5069562;28;43931;-69
2022/06/18 00:57:54;;;;;;;1.60;1.60;;;23.20;70.60;;;;;;5063255;28;43780;-69
2022/06/18 01:00:24;;;;;;;1.63;1.63;;;23.20;71.40;;;;;;5063419;28;44805;-70
2022/06/18 01:02:53;;;;;;;1.77;1.77;;;23.20;70.80;;;;;;5067671;28;44074;-69
2022/06/18 01:05:24;;;;;;;1.43;1.43;;;23.20;70.90;;;;;;5067867;28;43379;-69
2022/06/18 01:07:54;;;;;;;1.80;1.70;;;23.10;70.90;;;;;;5069790;28;43435;-69
2022/06/18 01:10:26;;;;;;;1.63;1.63;;;23.10;71.00;;;;;;5067781;28;45612;-69
2022/06/18 01:12:56;;;;;;;1.63;1.63;;;23.10;71.80;;;;;;5067699;28;44984;-70
2022/06/18 01:15:24;;;;;;;1.60;1.60;;;23.10;71.00;;;;;;5067742;28;44056;-69
2022/06/18 01:17:54;;;;;;;1.50;1.50;;;23.10;72.50;;;;;;5067614;28;43943;-69
2022/06/18 01:20:23;;;;;;;1.70;1.70;;;23.20;71.50;;;;;;5067524;28;46044;-69
2022/06/18 01:22:59;;;;;;;1.50;1.50;;;23.30;71.40;;;;;;5067420;28;44098;-71
2022/06/18 01:25:28;;;;;;;1.53;1.53;;;23.50;70.60;;;;;;5067597;28;44081;-70
2022/06/18 01:27:57;;;;;;;1.47;1.47;;;23.70;69.90;;;;;;5067702;28;43619;-70
2022/06/18 01:30:34;;;;;;;1.47;1.47;;;23.90;70.00;;;;;;5067570;28;43906;-69
2022/06/18 01:33:03;;;;;;;1.40;1.40;;;24.10;68.70;;;;;;5067544;28;44061;-70
2022/06/18 01:35:32;;;;;;;1.37;1.37;;;24.30;68.30;;;;;;5067723;28;44055;-69
2022/06/18 01:38:04;;;;;;;1.70;1.70;;;24.40;67.70;;;;;;5067731;28;44012;-69
2022/06/18 01:40:37;;;;;;;1.70;1.70;;;24.50;67.40;;;;;;5060557;28;45739;-70
2022/06/18 01:43:06;;;;;;;1.60;1.60;;;24.50;67.30;;;;;;5067217;28;43980;-69
2022/06/18 01:45:35;;;;;;;1.43;1.43;;;24.40;67.60;;;;;;5067408;28;43933;-70
2022/06/18 01:48:06;;;;;;;1.47;1.47;;;24.20;68.00;;;;;;5067745;28;44047;-69
2022/06/18 01:50:37;;;;;;;1.40;1.40;;;24.00;68.30;;;;;;5067122;28;44074;-69
2022/06/18 01:53:08;;;;;;;1.50;1.50;;;23.80;68.70;;;;;;5067070;28;46092;-69
2022/06/18 01:55:39;;;;;;;1.50;1.50;;;23.70;69.30;;;;;;5067161;28;43943;-70
2022/06/18 01:58:10;;;;;;;1.70;1.70;;;23.50;69.50;;;;;;5067305;28;44230;-69
2022/06/18 02:00:39;;;;;;;1.40;1.40;;;23.50;69.90;;;;;;5066995;28;44032;-70
2022/06/18 02:03:07;;;;;;;1.40;1.40;;;23.40;70.00;;;;;;5066813;28;44793;-68
2022/06/18 02:05:37;;;;;;;1.60;1.60;;;23.30;70.10;;;;;;5068651;28;43393;-69
2022/06/18 02:08:08;;;;;;;1.90;1.90;;;23.30;70.30;;;;;;5067243;28;44289;-69
2022/06/18 02:10:40;;;;;;;1.97;1.97;;;23.20;71.10;;;;;;5068321;28;43543;-69
2022/06/18 02:13:08;;;;;;;1.77;1.77;;;23.20;70.50;;;;;;5066557;28;45004;-70
2022/06/18 02:15:38;;;;;;;1.97;1.97;;;23.20;70.60;;;;;;5068298;28;44055;-69
2022/06/18 02:18:08;;;;;;;2.30;2.30;;;23.10;70.60;;;;;;5066953;28;43964;-70
2022/06/18 02:20:40;;;;;;;1.63;1.63;;;23.10;70.70;;;;;;5066640;28;45618;-70
2022/06/18 02:23:09;;;;;;;1.60;1.60;;;23.10;70.70;;;;;;5066518;28;44988;-69
2022/06/18 02:25:38;;;;;;;1.60;1.60;;;23.10;70.80;;;;;;5068144;28;44011;-69
2022/06/18 02:28:12;;;;;;;2.00;2.00;;;23.10;71.40;;;;;;5066981;28;43505;-70
2022/06/18 02:30:40;;;;;;;1.77;1.77;;;23.10;72.20;;;;;;5068225;28;43900;-69
2022/06/18 02:33:15;;;;;;;1.60;1.60;;;23.30;71.30;;;;;;5067974;28;43804;-70
2022/06/18 02:35:44;;;;;;;1.80;1.80;;;23.50;70.70;;;;;;5066521;28;43986;-69
2022/06/18 02:38:14;;;;;;;1.60;1.60;;;23.70;70.00;;;;;;5066730;28;43530;-69
2022/06/18 02:40:43;;;;;;;1.60;1.60;;;23.90;69.30;;;;;;5066160;28;45750;-68
2022/06/18 02:43:11;;;;;;;1.50;1.50;;;24.10;68.70;;;;;;5066172;28;46178;-69
2022/06/18 02:45:39;;;;;;;1.70;1.70;;;24.30;68.30;;;;;;5068079;28;43974;-69
2022/06/18 02:48:09;;;;;;;1.50;1.50;;;24.40;67.60;;;;;;5066248;28;44021;-70
2022/06/18 02:50:38;;;;;;;1.77;1.77;;;24.50;67.30;;;;;;5067651;28;43996;-69
2022/06/18 02:53:08;;;;;;;1.73;1.73;;;24.60;66.80;;;;;;5065343;28;45501;-70
2022/06/18 02:55:37;;;;;;;1.73;1.73;;;24.50;66.60;;;;;;5066262;28;43946;-70
2022/06/18 02:58:08;;;;;;;1.50;1.50;;;24.40;66.90;;;;;;5066654;28;43643;-70
2022/06/18 03:00:37;;;;;;;1.67;1.67;;;24.30;67.40;;;;;;5066107;28;43968;-69
2022/06/18 03:03:06;;;;;;;1.57;1.57;;;24.10;67.50;;;;;;5065890;28;44677;-69
2022/06/18 03:05:34;;;;;;;1.50;1.50;;;23.90;67.80;;;;;;5066041;28;43881;-68
2022/06/18 03:08:02;;;;;;;1.67;1.67;;;23.70;68.30;;;;;;5066381;28;43958;-69
2022/06/18 03:13:18;;;;;;;1.70;1.70;;;23.50;69.00;;;;;;5067065;28;43765;-69
2022/06/18 03:15:48;;;;;;;1.70;1.70;;;23.40;69.30;;;;;;5065794;28;44256;-69
2022/06/18 03:18:17;;;;;;;1.50;1.50;;;23.30;69.60;;;;;;5065979;28;43880;-70
2022/06/18 03:20:55;;;;;;;1.60;1.60;;;23.30;69.80;;;;;;5065354;28;45642;-70
2022/06/18 03:23:24;;;;;;;1.60;1.60;;;23.20;69.90;;;;;;5065717;28;44854;-70
2022/06/18 03:25:52;;;;;;;1.70;1.70;;;23.20;70.80;;;;;;5070661;28;43896;-70
2022/06/18 03:28:23;;;;;;;1.50;1.50;;;23.10;70.20;;;;;;5066131;28;43565;-68
2022/06/18 03:30:53;;;;;;;1.50;1.50;;;23.10;70.30;;;;;;5065627;28;44079;-70
2022/06/18 03:33:21;;;;;;;1.60;1.60;;;23.10;71.10;;;;;;5065613;28;44699;-69
2022/06/18 03:35:52;;;;;;;1.60;1.60;;;23.10;70.50;;;;;;5065905;28;43909;-69
2022/06/18 03:38:24;;;;;;;1.40;1.40;;;23.10;70.60;;;;;;5065976;28;44035;-70
2022/06/18 03:40:53;;;;;;;1.53;1.53;;;23.10;71.40;;;;;;5065621;28;44207;-69
2022/06/18 03:43:24;;;;;;;1.50;1.50;;;23.20;71.20;;;;;;5065602;28;43509;-69
2022/06/18 03:45:52;;;;;;;1.60;1.60;;;23.40;70.90;;;;;;5065670;28;43836;-70
2022/06/18 03:48:24;;;;;;;1.50;1.50;;;23.60;70.30;;;;;;5065772;28;43990;-70
2022/06/18 03:50:52;;;;;;;1.60;1.60;;;23.80;69.60;;;;;;5067027;28;43996;-69
2022/06/18 03:53:21;;;;;;;1.50;1.50;;;24.00;68.80;;;;;;5065451;28;45201;-69
2022/06/18 03:55:49;;;;;;;1.73;1.73;;;24.10;68.20;;;;;;5065479;28;44069;-70
2022/06/18 03:58:18;;;;;;;1.30;1.30;;;24.30;67.80;;;;;;5066117;28;43994;-70
2022/06/18 04:00:53;;;;;;;1.60;1.60;;;24.40;67.30;;;;;;5065132;28;44194;-69
2022/06/18 04:03:21;;;;;;;1.50;1.50;;;24.50;66.90;;;;;;5065182;28;45092;-69
2022/06/18 04:05:50;;;;;;;1.50;1.50;;;24.50;66.90;;;;;;5065357;28;44055;-69
2022/06/18 04:08:19;;;;;;;1.40;1.40;;;24.30;66.70;;;;;;5065797;28;43904;-70
2022/06/18 04:10:54;;;;;;;1.50;1.40;;;24.20;67.10;;;;;;5065039;28;46225;-69
2022/06/18 04:13:22;;;;;;;1.30;1.30;;;24.00;67.90;;;;;;5064672;28;44060;-70
2022/06/18 04:16:03;;;;;;;1.50;1.50;;;23.80;68.60;;;;;;5066828;28;44061;-70
2022/06/18 04:18:34;;;;;;;1.50;1.50;;;23.70;68.50;;;;;;5067056;28;43408;-69
2022/06/18 04:21:05;;;;;;;1.40;1.40;;;23.50;68.70;;;;;;5064826;28;43887;-70
2022/06/18 04:23:37;;;;;;;1.60;1.60;;;23.40;69.00;;;;;;5064938;28;43414;-69
2022/06/18 04:26:06;;;;;;;1.37;1.37;;;23.40;69.30;;;;;;5065204;28;43935;-69
2022/06/18 04:28:34;;;;;;;1.70;1.70;;;23.30;69.50;;;;;;5065556;28;43463;-69
2022/06/18 04:31:07;;;;;;;1.57;1.57;;;23.30;69.80;;;;;;5064602;28;44057;-69
2022/06/18 04:33:37;;;;;;;1.43;1.43;;;23.20;69.80;;;;;;5064840;28;45428;-69
2022/06/18 04:36:44;;;;;;;1.43;1.43;;;23.20;70.00;;;;;;5063633;28;43771;-70
2022/06/18 04:39:18;;;;;;;1.53;1.53;;;23.20;70.10;;;;;;5065163;28;44253;-69
2022/06/18 04:41:55;;;;;;;1.57;1.57;;;23.10;70.10;;;;;;5064789;28;44670;-70
2022/06/18 04:44:28;;;;;;;1.40;1.40;;;23.10;70.30;;;;;;5066334;28;44074;-69
2022/06/18 04:47:22;;;;;;;1.50;1.50;;;23.10;70.30;;;;;;5064754;28;43994;-69
2022/06/18 04:49:51;;;;;;;1.40;1.40;;;23.10;70.50;;;;;;5065041;28;43595;-68
2022/06/18 04:52:20;;;;;;;1.67;1.67;;;23.10;71.40;;;;;;5064679;28;46917;-69
2022/06/18 04:54:54;;;;;;;1.40;1.40;;;23.20;71.00;;;;;;5064674;28;43986;-70
2022/06/18 04:57:23;;;;;;;1.40;1.40;;;23.40;70.60;;;;;;5064962;28;43362;-69
2022/06/18 04:59:52;;;;;;;1.50;1.50;;;23.60;70.00;;;;;;5064877;28;44312;-70
2022/06/18 05:02:25;;;;;;;1.30;1.30;;;23.80;69.20;;;;;;5064566;28;45400;-69
2022/06/18 05:05:21;;;;;;;1.50;1.50;;;24.00;68.70;;;;;;5066283;28;43967;-70
2022/06/18 05:08:10;;;;;;;1.40;1.40;;;24.20;67.90;;;;;;5061875;28;43392;-69
2022/06/18 05:10:58;;;;;;;1.50;1.50;;;24.40;67.50;;;;;;5065768;28;44010;-69
2022/06/18 05:13:38;;;;;;;1.60;1.60;;;24.50;66.80;;;;;;5059173;28;44036;-70
2022/06/18 05:16:32;;;;;;;1.30;1.30;;;24.50;66.60;;;;;;5066115;28;44020;-69
2022/06/18 05:19:02;;;;;;;1.40;1.40;;;24.40;66.80;;;;;;5069736;28;44035;-69
2022/06/18 05:21:31;;;;;;;1.50;1.50;;;24.20;66.80;;;;;;5068867;28;43873;-68
2022/06/18 05:23:59;;;;;;;1.20;1.20;;;24.00;67.00;;;;;;5067655;28;45704;-69
2022/06/18 05:26:27;;;;;;;1.53;1.53;;;23.80;67.60;;;;;;5067810;28;44710;-69
2022/06/18 05:28:55;;;;;;;1.50;1.50;;;23.70;68.30;;;;;;5069390;28;44066;-69
2022/06/18 05:31:24;;;;;;;1.60;1.60;;;23.50;68.60;;;;;;5069471;28;43932;-69
2022/06/18 05:33:52;;;;;;;1.50;1.50;;;23.40;68.80;;;;;;5067473;28;45842;-69
2022/06/18 05:36:21;;;;;;;1.50;1.50;;;23.40;69.20;;;;;;5067652;28;43802;-69
2022/06/18 05:38:55;;;;;;;1.60;1.60;;;23.30;69.50;;;;;;5067806;28;44025;-68
2022/06/18 05:41:25;;;;;;;1.60;1.60;;;23.20;69.60;;;;;;5067912;28;43999;-69
2022/06/18 05:43:53;;;;;;;1.70;1.60;;;23.20;69.80;;;;;;5069166;28;43611;-68
2022/06/18 05:46:21;;;;;;;1.70;1.70;;;23.20;70.00;;;;;;5057802;28;44390;-69
2022/06/18 05:48:50;;;;;;;1.60;1.60;;;23.10;70.10;;;;;;5060776;28;44067;-70
2022/06/18 05:51:18;;;;;;;1.60;1.60;;;23.10;70.20;;;;;;5061628;28;43486;-69
2022/06/18 05:53:48;;;;;;;1.60;1.60;;;23.10;70.30;;;;;;5060872;28;45312;-69
2022/06/18 05:56:34;;;;;;;1.70;1.70;;;23.10;70.30;;;;;;5062264;28;43900;-69
2022/06/18 05:59:25;;;;;;;1.70;1.70;;;23.10;70.40;;;;;;5062509;28;43359;-68
2022/06/18 06:01:56;;;;;;;1.70;1.70;;;23.00;71.20;;;;;;5067593;28;43999;-69
2022/06/18 06:04:26;;;;;;;1.70;1.70;;;23.10;71.30;;;;;;5062083;28;43903;-69
2022/06/18 06:06:58;;;;;;;1.60;1.60;;;23.30;71.00;;;;;;5060848;28;45945;-69
2022/06/18 06:12:22;;;;;;;1.60;1.60;;;23.70;69.60;;;;;;5066931;28;44188;-69
2022/06/18 06:14:50;;;;;;;1.60;1.60;;;23.90;68.90;;;;;;5066527;28;45679;-69
2022/06/18 06:17:21;;;;;;;1.53;1.47;;;24.10;68.20;;;;;;5066616;28;43947;-69
2022/06/18 06:19:49;;;;;;;1.60;1.60;;;24.30;67.80;;;;;;5068543;28;43958;-70
2022/06/18 06:22:17;;;;;;;1.70;1.70;;;24.40;67.30;;;;;;5068859;28;43974;-70
2022/06/18 06:24:47;;;;;;;1.60;1.60;;;24.50;66.90;;;;;;5068293;28;44031;-69
2022/06/18 06:27:15;;;;;;;1.70;1.70;;;24.50;66.50;;;;;;5066969;28;43974;-70
2022/06/18 06:29:44;;;;;;;1.53;1.53;;;24.50;66.60;;;;;;5068010;28;44003;-70
2022/06/18 06:32:12;;;;;;;1.77;1.67;;;24.30;66.90;;;;;;5067172;28;43929;-70
2022/06/18 06:34:40;;;;;;;1.63;1.63;;;24.10;67.00;;;;;;5068080;28;44850;-69
2022/06/18 06:37:08;;;;;;;1.70;1.70;;;24.00;67.40;;;;;;5068201;28;43416;-69
2022/06/18 06:39:38;;;;;;;1.60;1.60;;;23.80;68.00;;;;;;5068378;28;43889;-69
2022/06/18 06:42:09;;;;;;;1.67;1.67;;;23.60;68.50;;;;;;5068684;28;43904;-70
2022/06/18 06:44:37;;;;;;;1.80;1.80;;;23.50;68.90;;;;;;5067844;28;44694;-69
2022/06/18 06:47:05;;;;;;;1.70;1.70;;;23.40;69.20;;;;;;5067883;28;43454;-70
2022/06/18 06:49:33;;;;;;;1.37;1.37;;;23.30;69.40;;;;;;5067701;28;43973;-69
2022/06/18 06:52:01;;;;;;;1.60;1.60;;;23.30;69.70;;;;;;5068771;28;44010;-68
2022/06/18 06:54:29;;;;;;;1.30;1.30;;;23.20;69.90;;;;;;5068001;28;43930;-69
2022/06/18 06:59:49;;;;;;;1.60;1.60;;;23.10;70.10;;;;;;5057319;28;43959;-70
2022/06/18 07:02:19;;;;;;;1.70;1.70;;;23.10;70.30;;;;;;5068187;28;43873;-69
2022/06/18 07:04:47;;;;;;;1.80;1.80;;;23.10;70.30;;;;;;5067599;28;45469;-69
2022/06/18 07:07:15;;;;;;;1.70;1.70;;;23.00;71.10;;;;;;5067753;28;43959;-70
2022/06/18 07:09:44;;;;;;;1.60;1.60;;;23.00;70.40;;;;;;5067467;28;44057;-70
2022/06/18 07:12:12;;;;;;;4.20;1.70;;;23.00;70.40;;;;;;5067952;28;43832;-69
2022/06/18 07:14:40;;;;;;;2.93;1.80;;;23.00;71.30;;;;;;5067467;28;44037;-69
2022/06/18 07:17:15;;;;;;;4.83;1.77;;;23.10;71.40;;;;;;5067327;28;44582;-70
2022/06/18 07:19:44;;;;;;;1.63;1.53;;;23.20;71.10;;;;;;5067361;28;43979;-68
2022/06/18 07:22:13;;;;;;;1.60;1.60;;;23.40;70.50;;;;;;5067941;28;43739;-69
2022/06/18 07:24:41;;;;;;;1.50;1.50;;;23.60;69.80;;;;;;5067321;28;44061;-70
2022/06/18 07:27:09;;;;;;;2.37;1.57;;;23.90;69.20;;;;;;5067233;28;43949;-70
2022/06/18 07:29:38;;;;;;;1.97;1.80;;;24.00;68.60;;;;;;5067481;28;43832;-69
2022/06/18 07:32:07;;;;;;;3.03;2.20;;;24.20;68.10;;;;;;5067917;28;43521;-69
2022/06/18 07:34:39;;;;;;;1.40;1.40;;;24.30;67.70;;;;;;5067448;28;44023;-70
2022/06/18 07:37:06;;;;;;;1.40;1.40;;;24.40;67.20;;;;;;5067309;28;43924;-70
2022/06/18 07:39:35;;;;;;;1.57;1.50;;;24.50;66.90;;;;;;5066751;28;43955;-69
2022/06/18 07:42:03;;;;;;;1.50;1.50;;;24.40;67.00;;;;;;5066364;28;43829;-69
2022/06/18 07:44:31;;;;;;;1.40;1.40;;;24.20;67.30;;;;;;5067152;28;44952;-69
2022/06/18 07:47:01;;;;;;;1.77;1.67;;;24.00;67.40;;;;;;5067461;28;43912;-69
2022/06/18 07:49:31;;;;;;;1.63;1.63;;;23.90;67.70;;;;;;5067155;28;43404;-69
2022/06/18 07:52:00;;;;;;;1.63;1.53;;;23.70;68.60;;;;;;5067618;28;44031;-69
2022/06/18 07:54:28;;;;;;;1.40;1.40;;;23.50;69.60;;;;;;5067116;28;43884;-68
2022/06/18 07:56:56;;;;;;;1.60;1.60;;;23.40;69.30;;;;;;5067125;28;43487;-68
2022/06/18 07:59:24;;;;;;;1.50;1.50;;;23.30;69.50;;;;;;5066875;28;43996;-69
2022/06/18 08:01:55;;;;;;;1.40;1.40;;;23.30;69.80;;;;;;5065831;28;44304;-69
2022/06/18 08:04:23;;;;;;;1.47;1.47;;;23.20;70.00;;;;;;5066828;28;44810;-69
2022/06/18 08:06:51;;;;;;;1.50;1.50;;;23.10;70.20;;;;;;5066589;28;43770;-69
2022/06/18 08:09:21;;;;;;;1.30;1.30;;;23.10;70.30;;;;;;5066846;28;44041;-69
2022/06/18 08:11:51;;;;;;;1.50;1.40;;;23.10;70.50;;;;;;5067379;28;43988;-69
2022/06/18 08:14:18;;;;;;;1.40;1.40;;;23.00;70.50;;;;;;5066519;28;44084;-69
2022/06/18 08:16:48;;;;;;;1.30;1.30;;;23.00;70.60;;;;;;5060264;28;43992;-69
2022/06/18 08:19:16;;;;;;;1.40;1.40;;;23.00;70.70;;;;;;5066375;28;43983;-69
2022/06/18 08:21:47;;;;;;;1.50;1.50;;;23.00;70.80;;;;;;5067089;28;44029;-68
2022/06/18 08:24:17;;;;;;;1.40;1.40;;;23.00;70.80;;;;;;5066550;28;43949;-70
2022/06/18 08:26:47;;;;;;;1.20;1.20;;;23.00;71.60;;;;;;5066422;28;43358;-69
2022/06/18 08:29:17;;;;;;;1.47;1.47;;;23.00;71.70;;;;;;5066659;28;43884;-69
2022/06/18 08:31:45;;;;;;;1.50;1.50;;;23.20;71.50;;;;;;5066878;28;44035;-69
2022/06/18 08:34:14;;;;;;;1.40;1.40;;;23.40;70.80;;;;;;5066416;28;43998;-70
2022/06/18 08:36:49;;;;;;;1.50;1.50;;;23.60;70.10;;;;;;5064950;28;43383;-69
2022/06/18 08:39:17;;;;;;;1.40;1.40;;;23.80;69.30;;;;;;5066528;28;43347;-69
2022/06/18 08:42:03;;;;;;;1.30;1.30;;;24.00;68.80;;;;;;5066887;28;43923;-70
2022/06/18 08:44:53;;;;;;;1.37;1.37;;;24.10;68.20;;;;;;5066382;28;43997;-69
2022/06/18 08:47:45;;;;;;;1.30;1.30;;;24.30;67.80;;;;;;5065986;28;44070;-69
2022/06/18 08:50:20;;;;;;;1.40;1.40;;;24.40;67.40;;;;;;5067075;28;43449;-69
2022/06/18 08:52:58;;;;;;;1.40;1.40;;;24.40;67.00;;;;;;5070466;28;43355;-69
2022/06/18 08:55:29;;;;;;;1.70;1.40;;;24.40;67.00;;;;;;5069743;28;43914;-69
2022/06/18 08:58:01;;;;;;;1.60;1.60;;;24.20;67.40;;;;;;5069693;28;44151;-70
2022/06/18 09:00:32;;;;;;;1.33;1.33;;;24.00;67.90;;;;;;5070057;28;43995;-70
2022/06/18 09:03:02;;;;;;;1.50;1.50;;;23.90;68.40;;;;;;5070235;28;43916;-69
2022/06/18 09:05:50;;;;;;;1.40;1.40;;;23.70;68.80;;;;;;5069612;28;45125;-69
2022/06/18 09:08:38;;;;;;;1.33;1.33;;;23.50;69.00;;;;;;5069608;28;43467;-69
2022/06/18 09:11:23;;;;;;;1.30;1.30;;;23.40;69.40;;;;;;5069699;28;43839;-69
2022/06/18 09:13:57;;;;;;;2.47;1.20;;;23.30;69.80;;;;;;5069922;28;43422;-69
2022/06/18 09:16:28;;;;;;;2.53;1.50;;;23.20;70.00;;;;;;5069578;28;44006;-69
2022/06/18 09:18:56;;;;;;;1.53;1.53;;;23.10;70.20;;;;;;5069429;28;43990;-69
2022/06/18 09:21:26;;;;;;;1.60;1.50;;;23.10;70.30;;;;;;5069444;28;44011;-69
2022/06/18 09:23:56;;;;;;;2.77;1.47;;;23.10;70.50;;;;;;5070040;28;43867;-70
2022/06/18 09:26:26;;;;;;;1.50;1.40;;;23.00;70.50;;;;;;5069183;28;43962;-69
2022/06/18 09:29:01;;;;;;;1.30;1.30;;;23.00;70.60;;;;;;5069332;28;43411;-68
2022/06/18 09:31:32;;;;;;;1.30;1.23;;;23.00;70.70;;;;;;5069772;28;43938;-70
2022/06/18 09:34:04;;;;;;;1.40;1.40;;;23.00;70.80;;;;;;5070019;28;43830;-70
2022/06/18 09:36:34;;;;;;;2.53;1.50;;;23.00;70.90;;;;;;5069310;28;44852;-69
2022/06/18 09:39:07;;;;;;;1.40;1.30;;;23.00;71.60;;;;;;5069316;28;43817;-70
2022/06/18 09:41:37;;;;;;;1.30;1.30;;;23.00;71.80;;;;;;5069273;28;43964;-69
2022/06/18 09:44:09;;;;;;;1.20;1.20;;;23.20;72.20;;;;;;5068870;28;43581;-68
2022/06/18 09:46:41;;;;;;;1.40;1.33;;;23.30;70.90;;;;;;5068795;28;44028;-70
2022/06/18 09:49:09;;;;;;;1.40;1.40;;;23.50;70.30;;;;;;5068614;28;43936;-69
2022/06/18 09:51:40;;;;;;;1.43;1.43;;;23.70;69.60;;;;;;5068863;28;43960;-70
2022/06/18 09:54:08;;;;;;;1.30;1.30;;;23.90;69.10;;;;;;5069364;28;43963;-69
2022/06/18 09:56:38;;;;;;;1.43;1.30;;;24.10;68.60;;;;;;5068885;28;43958;-69
2022/06/18 09:59:14;;;;;;;3.40;1.20;;;24.20;68.10;;;;;;5068820;28;44124;-69
2022/06/18 10:01:43;;;;;;;1.30;1.30;;;24.30;67.60;;;;;;5069044;28;43999;-69
2022/06/18 10:06:58;;;;;;;1.40;1.40;;;24.30;67.70;;;;;;5068584;28;43724;-70
2022/06/18 10:09:40;;;;;;;1.23;1.23;;;24.10;68.00;;;;;;5068898;28;44048;-70
2022/06/18 10:12:15;;;;;;;1.27;1.27;;;23.90;68.50;;;;;;5068684;28;43423;-70
2022/06/18 10:14:45;;;;;;;1.50;1.50;;;23.70;68.90;;;;;;5068870;28;43908;-69
2022/06/18 10:17:17;;;;;;;1.20;1.20;;;23.60;69.20;;;;;;5068233;28;43991;-69
2022/06/18 10:19:54;;;;;;;1.30;1.20;;;23.40;69.50;;;;;;5068463;28;43892;-70
2022/06/18 10:22:26;;;;;;;1.30;1.30;;;23.30;69.80;;;;;;5068584;28;43458;-69
2022/06/18 10:25:01;;;;;;;1.20;1.20;;;23.20;70.00;;;;;;5068900;28;43881;-69
2022/06/18 10:27:33;;;;;;;1.47;1.47;;;23.20;70.30;;;;;;5062141;28;43871;-70
2022/06/18 10:30:06;;;;;;;1.50;1.50;;;23.10;70.50;;;;;;5068604;28;43939;-69
2022/06/18 10:32:42;;;;;;;1.43;1.43;;;23.10;70.60;;;;;;5068516;28;43959;-68
2022/06/18 10:35:19;;;;;;;1.43;1.33;;;23.10;70.80;;;;;;5068650;28;44010;-69
2022/06/18 10:37:53;;;;;;;1.20;1.20;;;23.10;70.90;;;;;;5068124;28;44054;-69
2022/06/18 10:40:42;;;;;;;1.30;1.30;;;23.00;70.90;;;;;;5068234;28;44014;-69
2022/06/18 10:43:16;;;;;;;1.20;1.20;;;23.00;71.00;;;;;;5062324;28;43943;-69
2022/06/18 10:45:48;;;;;;;1.40;1.20;;;23.00;71.10;;;;;;5068527;28;43897;-69
2022/06/18 10:48:18;;;;;;;1.27;1.27;;;23.00;71.10;;;;;;5067599;28;43955;-68
2022/06/18 10:50:48;;;;;;;1.20;1.20;;;23.00;71.40;;;;;;5067691;28;44051;-68
2022/06/18 10:53:18;;;;;;;1.80;1.30;;;23.00;71.60;;;;;;5067980;28;44042;-70
2022/06/18 10:55:57;;;;;;;6.13;1.60;;;23.10;71.00;;;;;;5068414;28;43886;-70
2022/06/18 10:58:25;;;;;;;3.07;1.50;;;23.30;70.20;;;;;;5067893;28;44066;-69
2022/06/18 11:00:59;;;;;;;2.77;1.40;;;23.50;69.90;;;;;;5067856;28;43448;-69
2022/06/18 11:03:28;;;;;;;5.57;1.40;;;23.60;69.40;;;;;;5067944;28;43952;-69
2022/06/18 11:05:56;;;;;;;2.93;1.47;;;23.80;68.80;;;;;;5068289;28;43435;-69
2022/06/18 11:08:28;;;;;;;5.47;1.47;;;24.00;68.40;;;;;;5067752;28;43869;-70
2022/06/18 11:10:57;;;;;;;2.47;1.50;;;24.20;67.90;;;;;;5067557;28;43828;-68
2022/06/18 11:13:28;;;;;;;1.47;1.37;;;24.30;67.50;;;;;;5066662;28;43951;-69
2022/06/18 11:16:17;;;;;;;1.30;1.30;;;24.30;67.20;;;;;;5068079;28;43927;-69
2022/06/18 11:18:46;;;;;;;2.00;1.40;;;24.20;67.50;;;;;;5067595;28;44812;-69
2022/06/18 11:21:18;;;;;;;2.10;1.40;;;24.10;67.90;;;;;;5067468;28;43848;-68
2022/06/18 11:23:48;;;;;;;1.40;1.30;;;23.90;68.30;;;;;;5067780;28;43936;-69
2022/06/18 11:26:36;;;;;;;1.40;1.40;;;23.70;68.60;;;;;;5067513;28;43443;-69
2022/06/18 11:29:11;;;;;;;1.43;1.33;;;23.60;68.70;;;;;;5067413;28;43983;-69
2022/06/18 11:31:46;;;;;;;1.30;1.30;;;23.40;69.00;;;;;;5067218;28;43919;-69
2022/06/18 11:34:19;;;;;;;1.30;1.30;;;23.40;69.60;;;;;;5067578;28;43974;-68
2022/06/18 11:36:50;;;;;;;1.47;1.33;;;23.30;69.70;;;;;;5067596;28;44022;-69
2022/06/18 11:39:28;;;;;;;1.73;1.63;;;23.20;69.80;;;;;;5067178;28;43952;-69
2022/06/18 11:41:58;;;;;;;1.40;1.40;;;23.20;70.10;;;;;;5067098;28;44322;-69
2022/06/18 11:44:28;;;;;;;1.40;1.40;;;23.10;70.20;;;;;;5067360;28;43431;-69
2022/06/18 11:47:01;;;;;;;1.23;1.23;;;23.10;71.10;;;;;;5067394;28;43439;-69
2022/06/18 11:49:30;;;;;;;1.20;1.20;;;23.10;70.40;;;;;;5067316;28;43964;-69
2022/06/18 11:52:01;;;;;;;1.40;1.40;;;23.00;70.50;;;;;;5067265;28;43992;-69
2022/06/18 11:54:32;;;;;;;1.40;1.40;;;23.00;70.40;;;;;;5067448;28;44067;-68
2022/06/18 11:57:04;;;;;;;1.40;1.40;;;23.00;70.60;;;;;;5067462;28;44402;-69
2022/06/18 11:59:37;;;;;;;2.13;1.40;;;23.00;70.50;;;;;;5060743;28;44934;-70
2022/06/18 12:02:10;;;;;;;1.40;1.40;;;23.00;71.00;;;;;;5065160;28;44301;-68
2022/06/18 12:04:39;;;;;;;1.40;1.40;;;23.10;71.10;;;;;;5067009;28;43831;-69
2022/06/18 12:07:11;;;;;;;1.83;1.50;;;23.20;70.70;;;;;;5067179;28;43900;-69
2022/06/18 12:09:40;;;;;;;1.40;1.30;;;23.40;70.20;;;;;;5066862;28;44890;-70
2022/06/18 12:12:30;;;;;;;1.53;1.40;;;23.60;69.80;;;;;;5066648;28;43933;-69
2022/06/18 12:15:00;;;;;;;1.63;1.40;;;23.80;69.10;;;;;;5064971;28;43839;-68
2022/06/18 12:17:32;;;;;;;2.67;1.40;;;24.00;68.50;;;;;;5067091;28;43974;-69
2022/06/18 12:20:02;;;;;;;1.30;1.30;;;24.10;68.00;;;;;;5066798;28;44366;-70
2022/06/18 12:22:33;;;;;;;1.40;1.40;;;24.30;67.70;;;;;;5066768;28;44039;-69
2022/06/18 12:25:10;;;;;;;2.20;1.30;;;24.40;67.30;;;;;;5061025;28;44085;-69
2022/06/18 12:27:40;;;;;;;1.40;1.30;;;24.40;66.80;;;;;;5065275;28;43877;-69
2022/06/18 12:30:10;;;;;;;1.60;1.30;;;24.40;67.00;;;;;;5069984;28;43943;-69
2022/06/18 12:32:49;;;;;;;1.30;1.30;;;24.30;67.50;;;;;;5070245;28;43885;-69
2022/06/18 12:35:22;;;;;;;1.30;1.30;;;24.10;68.00;;;;;;5070193;28;44038;-69
2022/06/18 12:37:56;;;;;;;1.90;1.50;;;23.90;68.20;;;;;;5068901;28;44032;-69
2022/06/18 12:40:36;;;;;;;1.30;1.30;;;23.70;68.40;;;;;;5069772;28;44090;-70
2022/06/18 12:43:09;;;;;;;1.30;1.30;;;23.60;68.80;;;;;;5070025;28;43906;-68
2022/06/18 12:45:40;;;;;;;1.23;1.23;;;23.50;69.30;;;;;;5070104;28;44054;-69
2022/06/18 12:48:11;;;;;;;1.50;1.50;;;23.40;69.60;;;;;;5069950;28;43925;-69
2022/06/18 12:50:46;;;;;;;1.70;1.60;;;23.30;69.80;;;;;;5069602;28;44059;-68
2022/06/18 12:53:29;;;;;;;1.30;1.30;;;23.20;70.00;;;;;;5069890;28;43963;-69
2022/06/18 12:55:59;;;;;;;1.30;1.30;;;23.20;70.10;;;;;;5069841;28;44037;-69
2022/06/18 12:58:33;;;;;;;1.20;1.20;;;23.10;70.20;;;;;;5070008;28;43928;-69
2022/06/18 13:01:03;;;;;;;2.50;1.43;;;23.10;70.30;;;;;;5068083;28;46102;-68
2022/06/18 13:03:54;;;;;;;1.30;1.30;;;23.10;70.40;;;;;;5069858;28;43534;-69
2022/06/18 13:06:28;;;;;;;1.20;1.20;;;23.10;70.50;;;;;;5069756;28;43344;-69
2022/06/18 13:09:02;;;;;;;1.30;1.30;;;23.10;70.50;;;;;;5070176;28;43927;-70
2022/06/18 13:11:39;;;;;;;1.33;1.27;;;23.10;70.50;;;;;;5069583;28;45157;-69
2022/06/18 13:14:15;;;;;;;1.40;1.40;;;23.10;71.40;;;;;;5069199;28;43829;-69
2022/06/18 13:16:45;;;;;;;1.40;1.40;;;23.10;71.20;;;;;;5069780;28;43924;-70
2022/06/18 13:19:17;;;;;;;1.13;1.13;;;23.30;70.90;;;;;;5069866;28;43932;-69
2022/06/18 13:21:45;;;;;;;1.23;1.20;;;23.40;70.30;;;;;;5062915;28;43873;-68
2022/06/18 13:29:59;;;;;;;1.30;1.30;;;24.00;68.70;;;;;;5063143;28;43928;-70
2022/06/18 13:32:29;;;;;;;1.20;1.20;;;24.10;68.80;;;;;;5062601;28;43627;-69